createdAt,value
2018-09-15T00:01:46.561Z,4.27
2018-09-15T00:04:14.858Z,6.70
2018-09-15T00:06:42.905Z,5.77
2018-09-15T00:09:10.989Z,5.03
2018-09-15T00:11:39.121Z,3.13
2018-09-15T00:14:07.140Z,4.43
2018-09-15T00:16:35.228Z,6.07
2018-09-15T00:19:03.256Z,4.03
2018-09-15T00:21:31.364Z,4.37
2018-09-15T00:23:59.465Z,4.23
2018-09-15T00:26:27.569Z,5.57
2018-09-15T00:28:55.575Z,5.37
2018-09-15T00:31:23.609Z,4.33
2018-09-15T00:33:51.783Z,6.13
2018-09-15T00:36:19.794Z,4.03
2018-09-15T00:38:47.910Z,6.00
2018-09-15T00:41:15.932Z,4.33
2018-09-15T00:43:44.023Z,4.40
2018-09-15T00:46:11.990Z,4.73
2018-09-15T00:48:40.386Z,3.53
2018-09-15T00:51:08.771Z,6.37
2018-09-15T00:53:37.995Z,5.03
2018-09-15T00:56:06.244Z,4.03
2018-09-15T00:58:34.531Z,5.10
2018-09-15T01:01:02.734Z,5.33
2018-09-15T01:03:30.903Z,5.63
2018-09-15T01:05:59.075Z,4.37
2018-09-15T01:08:27.248Z,5.10
2018-09-15T01:10:55.608Z,6.63
2018-09-15T01:13:23.943Z,6.67
2018-09-15T01:15:52.110Z,7.03
2018-09-15T01:18:20.324Z,7.10
2018-09-15T01:20:48.498Z,5.07
2018-09-15T01:23:16.793Z,5.83
2018-09-15T01:25:44.933Z,5.23
2018-09-15T01:28:13.111Z,5.97
2018-09-15T01:30:41.266Z,7.43
2018-09-15T01:33:09.471Z,4.97
2018-09-15T01:35:37.667Z,6.07
2018-09-15T01:38:05.881Z,5.50
2018-09-15T01:40:34.060Z,4.30
2018-09-15T01:43:03.372Z,6.10
2018-09-15T01:45:31.590Z,8.00
2018-09-15T01:47:59.798Z,5.17
2018-09-15T01:50:27.956Z,4.77
2018-09-15T01:52:56.130Z,5.43
2018-09-15T01:55:24.290Z,6.07
2018-09-15T01:57:52.415Z,4.63
2018-09-15T02:00:20.637Z,4.33
2018-09-15T02:02:48.894Z,5.23
2018-09-15T02:05:16.993Z,4.77
2018-09-15T02:07:45.099Z,8.30
2018-09-15T02:10:13.264Z,4.80
2018-09-15T02:12:41.493Z,3.50
2018-09-15T02:15:09.613Z,4.63
2018-09-15T02:17:37.748Z,6.63
2018-09-15T02:20:05.820Z,4.63
2018-09-15T02:22:34.007Z,4.60
2018-09-15T02:25:02.133Z,4.67
2018-09-15T02:27:30.632Z,4.23
2018-09-15T02:29:58.661Z,5.50
2018-09-15T02:32:26.737Z,4.40
2018-09-15T02:34:54.892Z,9.93
2018-09-15T02:37:22.895Z,4.80
2018-09-15T02:39:50.917Z,4.97
2018-09-15T02:42:19.063Z,4.47
2018-09-15T02:44:47.103Z,4.97
2018-09-15T02:47:15.074Z,4.87
2018-09-15T02:49:43.078Z,4.07
2018-09-15T02:52:11.108Z,7.27
2018-09-15T02:54:39.123Z,5.33
2018-09-15T02:57:07.237Z,4.93
2018-09-15T02:59:35.272Z,5.23
2018-09-15T03:02:03.365Z,3.93
2018-09-15T03:04:31.357Z,4.00
2018-09-15T03:06:59.355Z,4.87
2018-09-15T03:09:27.390Z,7.50
2018-09-15T03:11:55.463Z,5.77
2018-09-15T03:14:23.443Z,6.37
2018-09-15T03:16:51.464Z,5.47
2018-09-15T03:19:19.603Z,5.20
2018-09-15T03:21:47.779Z,5.03
2018-09-15T03:24:15.864Z,4.33
2018-09-15T03:26:43.896Z,5.20
2018-09-15T03:29:12.040Z,4.87
2018-09-15T03:31:40.311Z,10.03
2018-09-15T03:34:08.449Z,4.33
2018-09-15T03:36:37.069Z,5.47
2018-09-15T03:39:08.290Z,5.33
2018-09-15T03:41:36.781Z,5.17
2018-09-15T03:44:05.237Z,4.23
2018-09-15T03:46:33.420Z,6.17
2018-09-15T03:49:01.863Z,6.00
2018-09-15T03:51:29.955Z,5.13
2018-09-15T03:53:58.066Z,6.03
2018-09-15T03:56:26.186Z,3.93
2018-09-15T03:58:54.266Z,7.03
2018-09-15T04:01:22.292Z,3.97
2018-09-15T04:03:50.306Z,6.23
2018-09-15T04:06:18.441Z,5.37
2018-09-15T04:08:46.694Z,4.27
2018-09-15T04:11:15.044Z,5.67
2018-09-15T04:13:43.392Z,7.17
2018-09-15T04:16:11.486Z,4.63
2018-09-15T04:18:39.551Z,4.83
2018-09-15T04:21:07.579Z,5.53
2018-09-15T04:23:35.750Z,5.17
2018-09-15T04:26:03.822Z,6.27
2018-09-15T04:28:32.091Z,4.30
2018-09-15T04:31:00.159Z,4.53
2018-09-15T04:33:28.306Z,4.97
2018-09-15T04:35:56.719Z,6.70
2018-09-15T04:38:24.852Z,5.67
2018-09-15T04:40:53.056Z,5.03
2018-09-15T04:43:21.267Z,4.87
2018-09-15T04:45:49.277Z,4.80
2018-09-15T04:48:17.336Z,5.60
2018-09-15T04:50:45.492Z,4.40
2018-09-15T04:53:13.695Z,5.83
2018-09-15T04:55:41.751Z,6.47
2018-09-15T04:58:09.843Z,3.73
2018-09-15T05:00:38.452Z,4.57
2018-09-15T05:03:06.996Z,7.13
2018-09-15T05:05:35.648Z,4.43
2018-09-15T05:08:04.239Z,4.23
2018-09-15T05:10:32.630Z,3.30
2018-09-15T05:13:01.216Z,5.47
2018-09-15T05:15:29.641Z,4.60
2018-09-15T05:17:58.059Z,6.37
2018-09-15T05:20:26.554Z,5.33
2018-09-15T05:22:55.104Z,5.77
2018-09-15T05:25:23.619Z,6.03
2018-09-15T05:27:52.039Z,4.97
2018-09-15T05:30:20.945Z,5.80
2018-09-15T05:32:50.568Z,5.97
2018-09-15T05:35:19.203Z,8.63
2018-09-15T05:37:48.073Z,7.33
2018-09-15T05:40:16.639Z,6.90
2018-09-15T05:42:45.855Z,5.60
2018-09-15T05:45:15.062Z,6.00
2018-09-15T05:47:44.121Z,5.33
2018-09-15T05:50:12.857Z,5.13
2018-09-15T05:52:41.415Z,5.23
2018-09-15T05:55:09.825Z,4.93
2018-09-15T05:57:38.532Z,5.33
2018-09-15T06:00:06.978Z,8.83
2018-09-15T06:02:35.451Z,9.40
2018-09-15T06:05:03.939Z,6.53
2018-09-15T06:07:32.379Z,5.37
2018-09-15T06:10:00.939Z,6.27
2018-09-15T06:12:29.369Z,7.97
2018-09-15T06:14:57.802Z,5.40
2018-09-15T06:17:26.182Z,9.40
2018-09-15T06:19:54.531Z,9.20
2018-09-15T06:22:23.092Z,13.83
2018-09-15T06:24:51.610Z,10.23
2018-09-15T06:27:20.302Z,10.73
2018-09-15T06:29:48.965Z,8.97
2018-09-15T06:32:17.503Z,8.37
2018-09-15T06:34:46.095Z,6.03
2018-09-15T06:37:14.505Z,7.70
2018-09-15T06:39:42.958Z,9.83
2018-09-15T06:42:11.363Z,8.70
2018-09-15T06:44:39.895Z,8.47
2018-09-15T06:47:08.311Z,6.67
2018-09-15T06:49:36.749Z,7.47
2018-09-15T06:52:05.230Z,9.30
2018-09-15T06:54:33.697Z,7.87
2018-09-15T06:57:02.341Z,8.73
2018-09-15T06:59:31.002Z,9.70
2018-09-15T07:01:59.457Z,8.53
2018-09-15T07:04:30.503Z,6.70
2018-09-15T07:07:00.216Z,6.97
2018-09-15T07:09:28.770Z,7.77
2018-09-15T07:11:57.122Z,4.97
2018-09-15T07:14:25.692Z,4.77
2018-09-15T07:16:54.046Z,6.20
2018-09-15T07:19:22.651Z,6.23
2018-09-15T07:21:51.472Z,5.73
2018-09-15T07:24:19.884Z,6.97
2018-09-15T07:26:48.190Z,5.93
2018-09-15T07:29:16.613Z,8.07
2018-09-15T07:31:45.266Z,7.10
2018-09-15T07:34:14.819Z,6.20
2018-09-15T07:36:43.185Z,6.53
2018-09-15T07:39:12.028Z,4.60
2018-09-15T07:41:40.884Z,6.50
2018-09-15T07:44:09.350Z,5.73
2018-09-15T07:46:37.662Z,7.07
2018-09-15T07:49:06.115Z,5.97
2018-09-15T07:51:34.508Z,10.37
2018-09-15T07:54:03.056Z,5.87
2018-09-15T07:56:31.719Z,7.03
2018-09-15T07:59:00.126Z,11.60
2018-09-15T08:01:28.404Z,7.70
2018-09-15T08:03:58.118Z,4.63
2018-09-15T08:06:26.426Z,7.43
2018-09-15T08:08:54.752Z,11.00
2018-09-15T08:11:22.932Z,7.37
2018-09-15T08:13:51.254Z,7.53
2018-09-15T08:16:20.548Z,8.43
2018-09-15T08:18:48.796Z,11.23
2018-09-15T08:21:17.054Z,9.93
2018-09-15T08:23:45.403Z,8.47
2018-09-15T08:26:14.023Z,6.23
2018-09-15T08:28:42.475Z,7.17
2018-09-15T08:31:10.969Z,4.90
2018-09-15T08:33:39.855Z,5.50
2018-09-15T08:36:08.352Z,7.80
2018-09-15T08:38:36.869Z,4.63
2018-09-15T08:41:05.346Z,6.47
2018-09-15T08:43:33.894Z,6.53
2018-09-15T08:46:03.045Z,4.67
2018-09-15T08:48:31.245Z,3.97
2018-09-15T08:50:59.575Z,4.00
2018-09-15T08:53:27.987Z,4.40
2018-09-15T08:55:56.407Z,4.62
2018-09-15T08:58:24.710Z,3.95
2018-09-15T09:00:53.252Z,5.03
2018-09-15T09:03:22.596Z,4.20
2018-09-15T09:05:51.147Z,4.13
2018-09-15T09:08:19.699Z,4.23
2018-09-15T09:10:48.121Z,5.17
2018-09-15T09:13:16.640Z,4.78
2018-09-15T09:15:45.152Z,6.80
2018-09-15T09:18:13.668Z,3.65
2018-09-15T09:20:41.972Z,4.87
2018-09-15T09:26:07.507Z,4.40
2018-09-15T09:28:35.842Z,5.25
2018-09-15T09:31:04.250Z,3.22
2018-09-15T09:33:32.777Z,3.83
2018-09-15T09:36:01.056Z,3.50
2018-09-15T09:38:29.293Z,6.25
2018-09-15T09:40:57.711Z,4.65
2018-09-15T09:43:27.031Z,3.98
2018-09-15T09:45:55.298Z,5.03
2018-09-15T09:48:24.263Z,6.03
2018-09-15T09:50:53.126Z,5.70
2018-09-15T09:53:24.785Z,4.05
2018-09-15T09:55:53.291Z,4.15
2018-09-15T09:58:21.887Z,3.90
2018-09-15T10:00:56.056Z,4.42
2018-09-15T10:03:24.566Z,4.20
2018-09-15T10:05:54.935Z,8.83
2018-09-15T10:08:24.311Z,5.37
2018-09-15T10:10:54.638Z,6.97
2018-09-15T10:13:23.325Z,3.77
2018-09-15T10:15:51.864Z,5.72
2018-09-15T10:18:20.362Z,7.25
2018-09-15T10:20:49.043Z,4.30
2018-09-15T10:23:17.537Z,5.00
2018-09-15T10:25:46.072Z,4.45
2018-09-15T10:28:14.809Z,5.85
2018-09-15T10:30:43.641Z,6.15
2018-09-15T10:33:12.350Z,5.45
2018-09-15T10:35:40.796Z,4.05
2018-09-15T10:38:09.832Z,5.60
2018-09-15T10:40:38.333Z,4.45
2018-09-15T10:43:08.813Z,5.67
2018-09-15T10:45:37.734Z,4.28
2018-09-15T10:48:06.463Z,5.15
2018-09-15T10:50:34.934Z,5.75
2018-09-15T10:53:03.679Z,4.15
2018-09-15T10:55:32.481Z,4.08
2018-09-15T10:58:01.380Z,4.90
2018-09-15T11:00:29.894Z,6.37
2018-09-15T11:02:59.354Z,4.70
2018-09-15T11:05:28.658Z,3.62
2018-09-15T11:07:57.669Z,4.53
2018-09-15T11:10:26.464Z,3.70
2018-09-15T11:12:55.497Z,5.25
2018-09-15T11:15:24.469Z,4.92
2018-09-15T11:17:53.875Z,4.10
2018-09-15T11:20:23.055Z,4.47
2018-09-15T11:22:51.819Z,5.50
2018-09-15T11:25:20.386Z,4.55
2018-09-15T11:27:49.280Z,4.85
2018-09-15T11:30:19.560Z,4.03
2018-09-15T11:32:48.585Z,4.55
2018-09-15T11:35:17.922Z,5.08
2018-09-15T11:37:46.864Z,3.98
2018-09-15T11:40:15.843Z,6.58
2018-09-15T11:42:45.347Z,4.67
2018-09-15T11:45:14.831Z,3.65
2018-09-15T11:47:47.154Z,3.87
2018-09-15T11:50:17.139Z,7.70
2018-09-15T11:52:48.455Z,4.25
2018-09-15T11:55:18.743Z,4.50
2018-09-15T11:57:47.500Z,4.85
2018-09-15T12:00:24.169Z,4.70
2018-09-15T12:02:54.154Z,3.67
2018-09-15T12:05:23.662Z,4.85
2018-09-15T12:07:53.026Z,8.93
2018-09-15T12:10:21.877Z,11.83
2018-09-15T12:12:50.690Z,7.28
2018-09-15T12:15:21.153Z,3.72
2018-09-15T12:17:51.612Z,4.80
2018-09-15T12:20:22.727Z,4.78
2018-09-15T12:22:52.380Z,3.92
2018-09-15T12:25:22.242Z,5.50
2018-09-15T12:27:51.813Z,7.87
2018-09-15T12:30:21.638Z,5.97
2018-09-15T12:32:51.578Z,3.55
2018-09-15T12:35:20.614Z,3.95
2018-09-15T12:37:49.182Z,7.53
2018-09-15T12:40:18.680Z,4.42
2018-09-15T12:42:47.532Z,5.47
2018-09-15T12:45:18.821Z,4.58
2018-09-15T12:47:49.862Z,6.00
2018-09-15T12:50:19.602Z,3.60
2018-09-15T13:14:31.591Z,4.28
2018-09-15T13:17:00.908Z,5.17
2018-09-15T13:19:30.054Z,4.78
2018-09-15T13:21:59.861Z,5.35
2018-09-15T13:24:30.235Z,4.62
2018-09-15T13:27:00.727Z,6.35
2018-09-15T13:29:36.660Z,5.10
2018-09-15T13:32:07.189Z,4.75
2018-09-15T13:34:44.262Z,4.70
2018-09-15T13:37:14.056Z,6.03
2018-09-15T13:39:42.606Z,4.60
2018-09-15T13:42:11.629Z,5.45
2018-09-15T13:44:41.734Z,9.13
2018-09-15T13:47:13.183Z,5.47
2018-09-15T13:49:42.205Z,5.22
2018-09-15T13:52:11.167Z,5.00
2018-09-15T13:54:39.957Z,5.12
2018-09-15T13:57:08.759Z,6.40
2018-09-15T13:59:45.843Z,7.30
2018-09-15T14:02:20.987Z,5.25
2018-09-15T14:04:53.517Z,5.42
2018-09-15T14:07:26.213Z,5.10
2018-09-15T14:09:59.870Z,5.15
2018-09-15T14:12:32.773Z,5.95
2018-09-15T14:15:05.408Z,5.12
2018-09-15T14:17:36.387Z,6.55
2018-09-15T14:20:07.359Z,5.62
2018-09-15T14:22:36.517Z,4.83
2018-09-15T14:25:05.248Z,5.90
2018-09-15T14:27:34.370Z,5.95
2018-09-15T14:30:03.126Z,5.25
2018-09-15T14:32:32.590Z,4.83
2018-09-15T14:35:01.671Z,6.55
2018-09-15T14:37:30.290Z,5.37
2018-09-15T14:40:00.078Z,6.08
2018-09-15T14:42:32.990Z,6.20
2018-09-15T14:45:05.372Z,6.33
2018-09-15T14:47:35.624Z,5.10
2018-09-15T14:50:11.061Z,6.58
2018-09-15T14:52:41.797Z,7.12
2018-09-15T14:55:14.950Z,6.40
2018-09-15T14:57:45.387Z,6.72
2018-09-15T15:00:16.530Z,6.22
2018-09-15T15:02:50.947Z,6.08
2018-09-15T15:05:20.697Z,6.10
2018-09-15T15:07:51.163Z,6.65
2018-09-15T15:10:21.042Z,6.83
2018-09-15T15:12:51.342Z,7.45
2018-09-15T15:15:20.592Z,7.72
2018-09-15T15:17:50.740Z,6.80
2018-09-15T15:20:21.083Z,6.50
2018-09-15T15:22:50.364Z,7.12
2018-09-15T15:25:21.733Z,6.85
2018-09-15T15:27:52.615Z,7.03
2018-09-15T15:30:21.717Z,6.28
2018-09-15T15:32:50.567Z,7.22
2018-09-15T15:35:22.423Z,6.77
2018-09-15T15:37:51.509Z,6.55
2018-09-15T15:40:22.132Z,6.03
2018-09-15T15:42:51.616Z,6.92
2018-09-15T15:45:20.691Z,9.00
2018-09-15T15:47:49.620Z,8.03
2018-09-15T15:50:19.368Z,8.90
2018-09-15T15:52:48.520Z,7.93
2018-09-15T15:55:17.788Z,7.20
2018-09-15T15:57:46.609Z,6.43
2018-09-15T16:00:16.251Z,8.83
2018-09-15T16:02:45.292Z,7.87
2018-09-15T16:05:14.756Z,6.35
2018-09-15T16:07:43.590Z,6.73
2018-09-15T16:10:12.562Z,9.43
2018-09-15T16:12:41.483Z,7.83
2018-09-15T16:15:09.864Z,9.07
2018-09-15T16:17:38.170Z,7.63
2018-09-15T16:20:06.706Z,10.53
2018-09-15T16:22:35.329Z,7.43
2018-09-15T16:25:04.238Z,10.00
2018-09-15T16:27:32.393Z,9.10
2018-09-15T16:30:00.936Z,9.63
2018-09-15T16:32:29.199Z,7.73
2018-09-15T16:34:58.574Z,8.47
2018-09-15T16:37:26.700Z,8.33
2018-09-15T16:39:54.948Z,9.33
2018-09-15T16:42:23.238Z,8.57
2018-09-15T16:44:51.384Z,8.20
2018-09-15T16:47:19.788Z,9.60
2018-09-15T16:49:48.034Z,9.60
2018-09-15T16:52:16.822Z,8.20
2018-09-15T16:54:46.368Z,7.53
2018-09-15T16:57:15.048Z,9.43
2018-09-15T16:59:43.639Z,8.00
2018-09-15T17:02:12.334Z,9.20
2018-09-15T17:04:41.184Z,8.87
2018-09-15T17:07:10.044Z,9.27
2018-09-15T17:09:39.222Z,12.07
2018-09-15T17:12:07.669Z,8.00
2018-09-15T17:14:36.432Z,8.23
2018-09-15T17:17:06.539Z,8.77
2018-09-15T17:19:38.276Z,9.93
2018-09-15T17:22:09.867Z,9.90
2018-09-15T17:24:41.899Z,7.93
2018-09-15T17:27:12.235Z,11.57
2018-09-15T17:29:44.200Z,8.47
2018-09-15T17:32:14.526Z,9.50
2018-09-15T17:34:44.782Z,9.63
2018-09-15T17:37:16.838Z,10.37
2018-09-15T17:39:47.649Z,9.13
2018-09-15T17:47:53.395Z,11.17
2018-09-15T17:50:21.966Z,10.53
2018-09-15T17:52:50.808Z,10.70
2018-09-15T17:55:20.927Z,10.33
2018-09-15T18:09:30.487Z,11.93
2018-09-15T18:12:00.026Z,9.40
2018-09-15T18:14:29.280Z,13.03
2018-09-15T18:16:58.461Z,9.13
2018-09-15T18:19:27.664Z,10.23
2018-09-15T18:21:57.537Z,17.97
2018-09-15T18:24:27.364Z,11.43
2018-09-15T18:26:56.727Z,10.67
2018-09-15T18:29:26.434Z,9.90
2018-09-15T18:31:55.413Z,11.10
2018-09-15T18:34:30.886Z,12.13
2018-09-15T18:37:00.870Z,11.23
2018-09-15T18:39:30.611Z,10.40
2018-09-15T18:42:02.391Z,10.97
2018-09-15T18:44:42.325Z,9.97
2018-09-15T18:47:13.062Z,11.67
2018-09-15T18:49:43.049Z,9.40
2018-09-15T18:52:12.836Z,11.53
2018-09-15T18:54:49.520Z,10.57
2018-09-15T18:57:19.189Z,11.07
2018-09-15T18:59:49.333Z,13.27
2018-09-15T19:02:18.562Z,10.07
2018-09-15T19:04:48.320Z,10.90
2018-09-15T19:07:17.169Z,10.70
2018-09-15T19:09:45.642Z,13.63
2018-09-15T19:12:14.967Z,11.47
2018-09-15T19:14:47.524Z,11.63
2018-09-15T19:17:16.238Z,11.80
2018-09-15T19:19:44.957Z,10.47
2018-09-15T19:22:15.019Z,11.60
2018-09-15T19:24:45.773Z,11.37
2018-09-15T19:27:14.352Z,10.03
2018-09-15T19:29:43.106Z,10.00
2018-09-15T19:32:12.371Z,10.47
2018-09-15T19:34:41.052Z,10.50
2018-09-15T19:37:10.903Z,12.13
2018-09-15T19:39:41.022Z,11.83
2018-09-15T19:42:10.629Z,14.03
2018-09-15T19:44:42.007Z,11.13
2018-09-15T19:47:11.716Z,11.47
2018-09-15T19:49:40.526Z,12.47
2018-09-15T19:52:09.419Z,13.53
2018-09-15T19:54:38.721Z,10.23
2018-09-15T19:57:07.767Z,9.53
2018-09-15T19:59:37.033Z,11.27
2018-09-15T20:02:06.245Z,10.53
2018-09-15T20:04:40.955Z,13.70
2018-09-15T20:07:10.237Z,10.17
2018-09-15T20:09:39.163Z,11.23
2018-09-15T20:12:08.450Z,10.83
2018-09-15T20:14:37.303Z,12.33
2018-09-15T20:17:04.686Z,11.70
2018-09-15T20:19:31.925Z,10.47
2018-09-15T20:21:59.104Z,9.63
2018-09-15T20:24:27.976Z,12.97
2018-09-15T20:26:58.021Z,11.53
2018-09-15T20:29:27.035Z,11.10
2018-09-15T20:31:56.893Z,10.90
2018-09-15T20:34:27.914Z,12.03
2018-09-15T20:36:57.639Z,13.00
2018-09-15T20:39:26.496Z,10.57
2018-09-15T20:41:55.395Z,9.17
2018-09-15T20:44:29.763Z,10.33
2018-09-15T20:46:58.395Z,9.40
2018-09-15T20:49:27.759Z,11.67
2018-09-15T20:51:57.574Z,10.70
2018-09-15T20:54:32.217Z,15.43
2018-09-15T20:57:01.186Z,10.10
2018-09-15T20:59:29.930Z,11.90
2018-09-15T21:01:58.911Z,14.33
2018-09-15T21:04:30.597Z,10.50
2018-09-15T21:06:59.951Z,13.13
2018-09-15T21:09:29.348Z,10.93
2018-09-15T21:11:58.483Z,11.50
2018-09-15T21:14:47.120Z,12.00
2018-09-15T21:17:16.446Z,11.03
2018-09-15T21:19:45.215Z,11.87
2018-09-15T21:22:14.268Z,13.07
2018-09-15T21:24:43.060Z,11.60
2018-09-15T21:27:11.643Z,10.33
2018-09-15T21:29:40.358Z,12.67
2018-09-15T21:32:09.064Z,11.77
2018-09-15T21:34:38.841Z,11.97
2018-09-15T21:37:08.087Z,11.97
2018-09-15T21:39:36.718Z,12.00
2018-09-15T21:42:05.388Z,10.93
2018-09-15T21:44:40.232Z,11.10
2018-09-15T21:47:08.935Z,11.50
2018-09-15T21:49:38.295Z,10.27
2018-09-15T21:52:07.233Z,11.30
2018-09-15T21:54:43.330Z,11.60
2018-09-15T21:57:12.433Z,13.13
2018-09-15T21:59:41.519Z,13.50
2018-09-15T22:02:10.796Z,12.70
2018-09-15T22:04:42.061Z,11.60
2018-09-15T22:07:10.687Z,12.07
2018-09-15T22:09:39.453Z,13.40
2018-09-15T22:12:08.148Z,13.20
2018-09-15T22:14:41.176Z,10.70
2018-09-15T22:17:09.870Z,12.20
2018-09-15T22:19:38.554Z,11.57
2018-09-15T22:22:07.433Z,10.67
2018-09-15T22:24:39.507Z,11.37
2018-09-15T22:27:08.248Z,12.27
2018-09-15T22:29:36.842Z,10.53
2018-09-15T22:32:05.516Z,13.93
2018-09-15T22:34:36.302Z,10.73
2018-09-15T22:37:05.164Z,12.43
2018-09-15T22:39:34.019Z,10.90
2018-09-15T22:42:02.617Z,14.67
2018-09-15T22:44:32.413Z,11.63
2018-09-15T22:47:00.912Z,13.07
2018-09-15T22:49:29.876Z,12.50
2018-09-15T22:51:58.003Z,11.63
2018-09-15T22:54:38.211Z,13.17
2018-09-15T22:57:06.545Z,9.70
2018-09-15T22:59:35.041Z,14.33
2018-09-15T23:02:03.837Z,13.47
2018-09-15T23:04:34.394Z,11.57
2018-09-15T23:07:03.041Z,10.90
2018-09-15T23:09:31.685Z,13.73
2018-09-15T23:11:59.904Z,12.50
2018-09-15T23:14:28.300Z,14.00
2018-09-15T23:16:56.742Z,13.90
2018-09-15T23:19:25.664Z,12.87
2018-09-15T23:21:54.706Z,11.23
2018-09-15T23:24:28.545Z,10.87
2018-09-15T23:26:56.908Z,11.37
2018-09-15T23:29:25.613Z,9.90
2018-09-15T23:31:54.083Z,10.30
2018-09-15T23:34:22.508Z,11.60
2018-09-15T23:36:50.891Z,12.13
2018-09-15T23:39:19.295Z,11.33
2018-09-15T23:41:51.709Z,11.57
2018-09-15T23:44:20.398Z,10.30
2018-09-15T23:46:49.173Z,13.87
2018-09-15T23:49:17.619Z,12.90
2018-09-15T23:51:46.281Z,11.50
2018-09-15T23:54:16.710Z,13.57
2018-09-15T23:56:45.222Z,10.63
2018-09-15T23:59:13.538Z,12.27
